Data for 05/08/2018

Time Sea-Level Adjusted Pressure Absolute Pressure Temperature Relative Humidity Dew Point   
(mb) (inHg) (mb) (inHg) (C) (F) (%) (C) (F)
00:05 1023 30.21 852 25.16 11.8 53.3 60 4.4 39.9
00:10 1023 30.21 852 25.16 11.8 53.2 60 4.5 40
00:15 1023 30.21 852 25.16 11.7 53.1 61 4.6 40.2
00:20 1023 30.21 852 25.16 11.4 52.5 64 4.8 40.7
00:25 1023 30.21 852 25.16 11.1 52 64 4.5 40.1
00:30 1023 30.21 852 25.16 11.1 51.9 63 4.4 40
00:35 1023 30.21 852 25.16 11.1 51.9 63 4.4 39.9
00:40 1023 30.21 852 25.16 11 51.8 64 4.5 40.1
00:45 1023 30.21 852 25.16 10.8 51.4 65 4.4 39.9
00:50 1023 30.21 852 25.16 10.7 51.2 65 4.3 39.7
00:55 1023 30.21 852 25.16 10.6 51.2 64 4.2 39.6
01:00 1023 30.21 852 25.16 10.6 51.1 64 4.2 39.5
01:05 1023 30.21 852 25.16 10.6 51 64 4.1 39.4
01:10 1023 30.21 853 25.19 10.7 51.2 63 4.1 39.3
01:15 1023 30.21 853 25.19 10.7 51.3 64 4.1 39.4
01:20 1024 30.24 853 25.19 10.7 51.2 64 4.2 39.6
01:25 1024 30.24 853 25.19 10.5 50.9 65 4.2 39.5
01:30 1024 30.24 853 25.19 10.4 50.8 65 4.2 39.5
01:35 1024 30.24 853 25.19 10.6 51.1 64 4 39.3
01:40 1024 30.24 853 25.19 10.7 51.2 63 4.1 39.3
01:45 1024 30.24 853 25.19 10.8 51.4 63 4.1 39.3
01:50 1024 30.24 853 25.19 10.9 51.6 63 4.1 39.4
01:55 1024 30.24 853 25.19 10.8 51.4 63 4.1 39.5
02:00 1024 30.24 853 25.19 10.8 51.4 65 4.4 39.9
02:05 1023 30.21 853 25.19 10.5 50.8 67 4.5 40.2
02:10 1023 30.21 853 25.19 10.3 50.5 67 4.4 40
02:15 1023 30.21 853 25.19 10.3 50.6 66 4.3 39.8
02:20 1023 30.21 853 25.19 10.4 50.7 66 4.4 39.9
02:25 1023 30.21 853 25.19 10.4 50.8 66 4.3 39.8
02:30 1023 30.21 853 25.19 10.4 50.7 67 4.6 40.2
02:35 1023 30.21 853 25.19 10.3 50.6 67 4.4 39.9
02:40 1023 30.21 852 25.16 10.3 50.6 66 4.4 39.9
02:45 1023 30.21 852 25.16 10.4 50.7 66 4.3 39.8
02:50 1023 30.21 852 25.16 10.6 51 64 4.2 39.5
02:55 1023 30.21 852 25.16 10.7 51.2 64 4.1 39.4
03:00 1023 30.21 852 25.16 10.7 51.2 65 4.3 39.8
03:05 1023 30.21 852 25.16 10.4 50.6 65 4.1 39.4
03:10 1023 30.21 852 25.16 10.2 50.4 66 4.1 39.5
03:15 1023 30.21 852 25.16 10.1 50.1 67 4.2 39.6
03:20 1023 30.21 852 25.16 9.9 49.9 67 4.1 39.4
03:25 1023 30.21 852 25.16 9.9 49.7 67 4.1 39.3
03:30 1023 30.21 852 25.16 9.8 49.6 67 4 39.2
03:35 1023 30.21 852 25.16 9.6 49.4 67 3.8 38.9
03:40 1023 30.21 852 25.16 9.6 49.2 67 3.8 38.8
03:45 1023 30.21 852 25.16 9.6 49.2 66 3.6 38.6
03:50 1023 30.21 852 25.16 9.6 49.3 66 3.6 38.6
03:55 1023 30.21 852 25.16 9.6 49.4 66 3.6 38.5
04:00 1023 30.21 853 25.19 9.8 49.6 65 3.5 38.3
04:05 1024 30.24 853 25.19 9.8 49.7 65 3.6 38.5
04:10 1024 30.24 853 25.19 9.8 49.7 65 3.6 38.5
04:15 1024 30.24 853 25.19 9.9 49.8 65 3.6 38.5
04:20 1024 30.24 853 25.19 10 49.9 65 3.7 38.7
04:25 1024 30.24 853 25.19 9.8 49.7 66 3.9 39
04:30 1024 30.24 853 25.19 9.6 49.3 68 3.9 39.1
04:35 1024 30.24 853 25.19 9.3 48.8 69 3.9 39.1
04:40 1024 30.24 853 25.19 9.2 48.5 69 3.9 38.9
04:45 1024 30.24 853 25.19 9.2 48.6 69 3.9 39
04:50 1024 30.24 853 25.19 9.2 48.5 70 4 39.2
04:55 1024 30.24 853 25.19 9.1 48.4 70 3.9 39.1
05:00 1024 30.24 853 25.19 9.1 48.4 70 3.9 39
05:05 1023 30.21 853 25.19 9.1 48.4 69 3.8 38.9
05:10 1023 30.21 853 25.19 9.1 48.4 70 4 39.2
05:15 1023 30.21 853 25.19 8.8 47.9 72 4.1 39.3
05:20 1023 30.21 853 25.19 8.5 47.3 73 4 39.1
05:25 1023 30.21 853 25.19 8.4 47.1 72 3.7 38.7
05:30 1023 30.21 853 25.19 8.4 47.1 73 3.9 39
05:35 1023 30.21 853 25.19 8.2 46.8 73 3.8 38.8
05:40 1023 30.21 853 25.19 8.1 46.6 74 3.8 38.8
05:45 1023 30.21 853 25.19 8.1 46.6 73 3.7 38.6
05:50 1023 30.21 853 25.19 8.1 46.6 73 3.6 38.5
05:55 1023 30.21 853 25.19 8.1 46.5 73 3.5 38.2
06:00 1023 30.21 853 25.19 8.1 46.6 73 3.6 38.5
06:05 1024 30.24 853 25.19 8.1 46.5 73 3.5 38.3
06:10 1024 30.24 853 25.19 8 46.5 73 3.5 38.3
06:15 1024 30.24 853 25.19 8 46.4 73 3.4 38.2
06:20 1024 30.24 853 25.19 7.9 46.2 74 3.5 38.2
06:25 1024 30.24 853 25.19 7.8 46 74 3.4 38.2
06:30 1024 30.24 853 25.19 7.7 45.8 74 3.4 38
06:35 1024 30.24 853 25.19 7.5 45.6 75 3.4 38.1
06:40 1024 30.24 853 25.19 7.4 45.3 75 3.2 37.7
06:45 1024 30.24 853 25.19 7.4 45.4 74 3.2 37.8
06:50 1024 30.24 853 25.19 7.9 46.2 72 3.2 37.8
06:55 1024 30.24 853 25.19 8.2 46.8 71 3.3 38
07:00 1024 30.24 853 25.19 8.5 47.2 70 3.4 38.1
07:05 1024 30.24 853 25.19 8.7 47.6 69 3.4 38.1
07:10 1024 30.24 853 25.19 8.9 47.9 68 3.4 38.1
07:15 1024 30.24 853 25.19 8.8 47.8 69 3.3 38
07:20 1024 30.24 853 25.19 8.9 48 68 3.3 38
07:25 1024 30.24 853 25.19 9.3 48.8 67 3.5 38.3
07:30 1024 30.24 853 25.19 9.4 49 67 3.6 38.5
07:35 1024 30.24 853 25.19 10.1 50.1 64 3.6 38.5
07:40 1024 30.24 853 25.19 10.4 50.7 64 3.9 39
07:45 1024 30.24 853 25.19 10.9 51.6 62 3.9 39.1
07:50 1024 30.24 853 25.19 11.6 52.8 59 3.8 38.8
07:55 1024 30.24 853 25.19 12.2 54 58 4.2 39.5
08:00 1024 30.24 853 25.19 12.3 54.2 57 4 39.2
08:05 1024 30.24 853 25.19 12.3 54.1 56 3.9 39
08:10 1024 30.24 853 25.19 12.6 54.7 55 3.9 39
08:15 1024 30.24 853 25.19 13.2 55.8 54 4.3 39.7
08:20 1024 30.24 853 25.19 13.3 56 54 4.3 39.7
08:25 1024 30.24 853 25.19 13.4 56.2 54 4.3 39.8
08:30 1024 30.24 853 25.19 13.7 56.6 52 4 39.1
08:35 1024 30.24 853 25.19 13.2 55.8 54 4.1 39.4
08:40 1024 30.24 853 25.19 13.4 56.1 52 3.9 39
08:45 1024 30.24 853 25.19 13.5 56.3 53 4.1 39.3
08:50 1024 30.24 853 25.19 14.3 57.8 48 3.7 38.6
08:55 1024 30.24 853 25.19 14.5 58 49 4 39.2
09:00 1024 30.24 853 25.19 13.9 57 52 4.3 39.8
09:05 1024 30.24 853 25.19 13.1 55.7 53 3.8 38.8
09:10 1024 30.24 853 25.19 13.5 56.3 49 3.1 37.6
09:15 1024 30.24 853 25.19 14.3 57.7 50 4 39.1
09:20 1024 30.24 853 25.19 14.4 57.9 49 3.9 39.1
09:25 1024 30.24 853 25.19 14.6 58.2 48 3.9 39
09:30 1024 30.24 853 25.19 13.7 56.6 51 3.8 38.8
09:35 1024 30.24 853 25.19 13.9 57 52 4.1 39.5
09:40 1024 30.24 853 25.19 13.1 55.6 52 3.6 38.5
09:45 1024 30.24 853 25.19 13.8 56.9 50 3.5 38.3
09:50 1024 30.24 853 25.19 14.5 58 49 3.9 39.1
09:55 1024 30.24 853 25.19 13.9 57.1 50 3.9 38.9
10:00 1024 30.24 853 25.19 14.9 58.8 48 4.2 39.6
10:05 1024 30.24 853 25.19 15.4 59.6 46 3.8 38.9
10:10 1024 30.24 853 25.19 14.8 58.6 48 4 39.1
10:15 1024 30.24 853 25.19 15.3 59.6 46 3.9 39
10:20 1024 30.24 853 25.19 15.3 59.5 50 4.9 40.8
10:25 1024 30.24 853 25.19 14.9 58.9 48 4.1 39.3
10:30 1023 30.21 853 25.19 15.2 59.3 46 3.7 38.7
10:35 1023 30.21 853 25.19 15.7 60.3 47 4.7 40.4
10:40 1023 30.21 853 25.19 15.8 60.5 43 3.2 37.8
10:45 1023 30.21 853 25.19 15.8 60.4 45 4.1 39.4
10:50 1023 30.21 853 25.19 16.2 61.2 44 4.1 39.3
10:55 1023 30.21 853 25.19 16.5 61.7 44 4.2 39.6
11:00 1023 30.21 852 25.16 16.2 61.2 41 3 37.5
11:05 1023 30.21 852 25.16 16.3 61.3 44 4 39.1
11:10 1023 30.21 852 25.16 15.7 60.2 43 3.3 37.9
11:15 1023 30.21 852 25.16 16.3 61.3 40 2.9 37.1
11:20 1023 30.21 852 25.16 17.3 63.1 38 3 37.5
11:25 1023 30.21 852 25.16 17.7 63.8 37 3 37.5
11:30 1023 30.21 852 25.16 17.7 63.9 39 3.8 38.8
11:35 1023 30.21 852 25.16 17.4 63.3 38 3.1 37.5
11:40 1023 30.21 852 25.16 17.2 63 39 3.3 37.9
11:45 1023 30.21 852 25.16 17.5 63.5 39 3.4 38.1
11:50 1023 30.21 852 25.16 17.5 63.4 37 2.7 36.8
11:55 1023 30.21 852 25.16 18.1 64.5 35 2.5 36.5
12:00 1023 30.21 852 25.16 17.9 64.2 37 3.2 37.7
12:05 1023 30.21 852 25.16 17 62.5 38 2.8 37.1
12:10 1023 30.21 852 25.16 17.8 64 37 3 37.4
12:15 1023 30.21 852 25.16 18.2 64.8 34 2.1 35.8
12:20 1023 30.21 852 25.16 18.8 65.9 34 2.7 36.8
12:25 1023 30.21 852 25.16 18.6 65.5 35 3 37.5
12:30 1023 30.21 852 25.16 19.1 66.4 32 2.4 36.3
12:35 1023 30.21 852 25.16 19.4 66.9 32 2.3 36.2
12:40 1023 30.21 852 25.16 19.3 66.7 33 2.8 37.1
12:45 1023 30.21 852 25.16 19.6 67.3 33 3.3 37.9
12:50 1023 30.21 852 25.16 19.4 66.9 33 2.7 36.8
12:55 1023 30.21 852 25.16 19.3 66.7 34 3.2 37.8
13:00 1023 30.21 852 25.16 19.2 66.5 37 4.2 39.6
13:05 1022 30.18 852 25.16 19.5 67.1 33 2.8 37
13:10 1022 30.18 852 25.16 19.4 66.9 34 3.1 37.6
13:15 1022 30.18 852 25.16 18.7 65.7 34 2.5 36.5
13:20 1022 30.18 851 25.13 19.4 67 31 1.9 35.4
13:25 1022 30.18 851 25.13 20 67.9 31 2.6 36.6
13:30 1022 30.18 851 25.13 19.8 67.7 31 2.4 36.2
13:35 1022 30.18 851 25.13 19.5 67 31 2.2 35.9
13:40 1022 30.18 851 25.13 19.5 67.1 31 2.3 36.1
13:45 1022 30.18 851 25.13 20 68 30 2.2 36
13:50 1022 30.18 851 25.13 20.4 68.6 30 2.6 36.6
13:55 1022 30.18 851 25.13 21.1 69.9 29 2.6 36.7
14:00 1022 30.18 851 25.13 20.2 68.3 32 3 37.4
14:05 1022 30.18 851 25.13 19.9 67.7 30 2.1 35.7
14:10 1022 30.18 851 25.13 20.9 69.5 30 2.6 36.7
14:15 1022 30.18 851 25.13 21 69.7 30 3.1 37.6
14:20 1022 30.18 851 25.13 20.9 69.7 30 2.9 37.2
14:25 1022 30.18 851 25.13 21 69.9 30 2.8 37
14:30 1022 30.18 851 25.13 21 69.9 30 3.1 37.5
14:35 1022 30.18 851 25.13 20.9 69.7 30 2.8 37
14:40 1022 30.18 851 25.13 21.4 70.5 28 2.5 36.5
14:45 1022 30.18 851 25.13 21.4 70.4 29 2.8 37.1
14:50 1022 30.18 851 25.13 20.3 68.6 30 2.4 36.4
14:55 1022 30.18 851 25.13 20.9 69.5 30 2.7 36.9
15:00 1022 30.18 851 25.13 21.4 70.5 28 2.4 36.2
15:05 1022 30.18 851 25.13 21.6 70.9 27 1.8 35.3
15:10 1022 30.18 851 25.13 21.8 71.2 28 2.6 36.6
15:15 1021 30.15 851 25.13 21.1 70 28 2 35.6
15:20 1021 30.15 851 25.13 20.8 69.5 28 2 35.5
15:25 1021 30.15 851 25.13 21.7 71.1 27 2.3 36.1
15:30 1021 30.15 851 25.13 21.9 71.4 26 1.9 35.4
15:35 1021 30.15 850 25.1 21.7 71 27 2 35.6
15:40 1021 30.15 850 25.1 21.9 71.4 27 2.3 36.2
15:45 1021 30.15 850 25.1 21.8 71.2 26 1.8 35.2
15:50 1021 30.15 850 25.1 21.9 71.4 27 2.3 36.2
15:55 1021 30.15 850 25.1 21.6 70.8 28 2.2 36
16:00 1021 30.15 850 25.1 21.3 70.3 27 1.9 35.4
16:05 1021 30.15 850 25.1 20.9 69.7 26 1 33.8
16:10 1021 30.15 850 25.1 21.6 70.8 25 1 33.8
16:15 1021 30.15 850 25.1 22.2 71.9 24 0.9 33.6
16:20 1021 30.15 850 25.1 22.4 72.3 23 0.6 33.1
16:25 1021 30.15 850 25.1 22.8 73 23 0.6 33.1
16:30 1021 30.15 850 25.1 22.6 72.8 23 0.7 33.3
16:35 1021 30.15 850 25.1 22.6 72.7 23 0.5 32.9
16:40 1021 30.15 850 25.1 22.7 72.9 24 1.1 33.9
16:45 1021 30.15 850 25.1 22.6 72.7 22 0.3 32.6
16:50 1021 30.15 850 25.1 22.8 73 23 0.6 33.1
16:55 1020 30.12 850 25.1 22.9 73.2 23 0.6 33.1
17:00 1020 30.12 850 25.1 23.1 73.5 23 0.8 33.4
17:05 1020 30.12 850 25.1 23.2 73.7 23 0.9 33.7
17:10 1020 30.12 850 25.1 22.6 72.8 22 0.3 32.6
17:15 1020 30.12 850 25.1 22.7 72.9 23 0.5 32.9
17:20 1020 30.12 850 25.1 22.3 72.1 23 0.6 33.1
17:25 1020 30.12 849 25.07 21.9 71.4 24 0.4 32.7
17:30 1020 30.12 849 25.07 21.4 70.6 24 0.2 32.4
17:35 1020 30.12 849 25.07 21.8 71.2 23 0.1 32.1
17:40 1020 30.12 849 25.07 21.4 70.5 24 0.4 32.7
17:45 1020 30.12 849 25.07 21.4 70.4 24 -0.1 31.9
17:50 1020 30.12 849 25.07 21.6 70.9 24 0.1 32.2
17:55 1020 30.12 849 25.07 21.1 70 24 0 32.1
18:00 1020 30.12 849 25.07 21.1 70 25 0.5 32.9
18:05 1020 30.12 849 25.07 21.9 71.5 22 -0.3 31.4
18:10 1020 30.12 849 25.07 21.9 71.4 23 0.1 32.2
18:15 1020 30.12 849 25.07 22 71.6 23 -0 32
18:20 1020 30.12 849 25.07 22.1 71.7 23 -0.1 31.8
18:25 1020 30.12 849 25.07 22 71.7 23 0.1 32.2
18:30 1020 30.12 849 25.07 21.8 71.2 23 0.1 32.2
18:35 1020 30.12 849 25.07 21.1 70 24 -0.2 31.6
18:40 1020 30.12 849 25.07 20.8 69.5 24 -0.1 31.7
18:45 1020 30.12 849 25.07 20.9 69.7 23 -0.8 30.6
18:50 1020 30.12 849 25.07 20.9 69.6 23 -0.8 30.6
18:55 1020 30.12 849 25.07 20.8 69.5 24 -0.3 31.4
19:00 1020 30.12 849 25.07 21 69.7 24 -0.5 31.2
19:05 1020 30.12 849 25.07 21.1 70 23 -0.6 30.9
19:10 1020 30.12 849 25.07 21 69.8 23 -0.5 31.1
19:15 1020 30.12 849 25.07 20.9 69.6 23 -0.9 30.4
19:20 1020 30.12 849 25.07 20.7 69.2 23 -1.3 29.7
19:25 1020 30.12 849 25.07 20.7 69.2 23 -1 30.3
19:30 1020 30.12 849 25.07 20.7 69.2 23 -1.3 29.7
19:35 1020 30.12 849 25.07 20.3 68.5 23 -1.2 29.8
19:40 1019 30.09 849 25.07 20.2 68.3 23 -1.2 29.9
19:45 1019 30.09 849 25.07 20.2 68.3 24 -0.9 30.3
19:50 1019 30.09 849 25.07 20.2 68.3 24 -1 30.2
19:55 1019 30.09 849 25.07 20.2 68.3 25 -0.5 31.1
20:00 1019 30.09 849 25.07 20.2 68.3 24 -0.7 30.8
20:05 1019 30.09 849 25.07 20 68.1 24 -0.8 30.5
20:10 1019 30.09 849 25.07 20 67.9 25 -0.5 31
20:15 1019 30.09 849 25.07 19.8 67.7 25 -0.6 31
20:20 1020 30.12 849 25.07 19.8 67.6 25 -0.7 30.7
20:25 1019 30.09 849 25.07 19.6 67.3 25 -0.6 31
20:30 1019 30.09 849 25.07 19.5 67 26 -0.3 31.4
20:35 1019 30.09 849 25.07 19.3 66.7 27 -0.1 31.8
20:40 1019 30.09 849 25.07 19.1 66.3 28 0.1 32.2
20:45 1019 30.09 849 25.07 18.9 66.1 35 3.1 37.7
20:50 1019 30.09 849 25.07 18.1 64.5 38 3.7 38.6
20:55 1019 30.09 849 25.07 17.4 63.3 40 3.7 38.7
21:00 1019 30.09 849 25.07 16.8 62.3 42 3.9 39
21:05 1019 30.09 849 25.07 16.4 61.4 43 3.8 38.8
21:10 1020 30.12 849 25.07 16 60.7 43 3.6 38.5
21:15 1020 30.12 849 25.07 15.7 60.3 45 4.1 39.3
21:20 1020 30.12 849 25.07 15.3 59.5 44 3.3 38
21:25 1020 30.12 849 25.07 15 59 44 3 37.5
21:30 1020 30.12 849 25.07 14.8 58.6 44 2.6 36.7
21:35 1020 30.12 849 25.07 14.8 58.6 44 2.7 36.9
21:40 1020 30.12 849 25.07 14.5 58.2 45 2.9 37.3
21:45 1020 30.12 849 25.07 14.1 57.3 47 2.9 37.3
21:50 1020 30.12 849 25.07 13.8 56.9 46 2.5 36.4
21:55 1020 30.12 849 25.07 14 57.1 46 2.6 36.7
22:00 1020 30.12 849 25.07 13.8 56.8 46 2.6 36.6
22:05 1020 30.12 849 25.07 13.6 56.4 48 2.8 37
22:10 1020 30.12 849 25.07 13.3 55.9 49 2.8 37
22:15 1020 30.12 849 25.07 13 55.5 46 1.9 35.4
22:20 1020 30.12 849 25.07 13.8 56.8 43 1.6 34.9
22:25 1020 30.12 849 25.07 13.9 57.1 44 2.1 35.7
22:30 1020 30.12 849 25.07 13.5 56.2 46 2.3 36.1
22:35 1020 30.12 849 25.07 13.1 55.5 47 2.1 35.9
22:40 1020 30.12 849 25.07 13.2 55.8 46 1.9 35.5
22:45 1020 30.12 849 25.07 13.4 56 46 1.9 35.5
22:50 1020 30.12 849 25.07 13.1 55.7 47 2 35.7
22:55 1019 30.09 849 25.07 13.1 55.5 46 1.8 35.2
23:00 1019 30.09 849 25.07 13 55.5 47 2.1 35.9
23:05 1020 30.12 849 25.07 12.8 55.1 48 2.1 35.8
23:10 1020 30.12 849 25.07 12.7 54.8 48 2.1 35.8
23:15 1020 30.12 849 25.07 12.6 54.6 49 2.1 35.8
23:20 1020 30.12 849 25.07 12.5 54.5 49 2.1 35.7
23:25 1020 30.12 849 25.07 12.4 54.4 49 2.1 35.7
23:30 1020 30.12 849 25.07 12.4 54.3 49 1.9 35.4
23:35 1020 30.12 849 25.07 12.5 54.5 49 2.1 35.7
23:40 1020 30.12 849 25.07 12.5 54.6 48 1.9 35.4
23:45 1020 30.12 849 25.07 12.5 54.5 48 1.9 35.5
23:50 1020 30.12 849 25.07 12.3 54.2 49 2 35.6
23:55 1020 30.12 849 25.07 12.2 53.9 49 1.9 35.4
24:00 1020 30.12 849 25.07 12.2 53.9 49 1.9 35.5